createdAt,value
2022-12-18T00:01:26.724Z,16.00
2022-12-18T00:04:21.059Z,16.85
2022-12-18T00:07:06.549Z,12.88
2022-12-18T00:09:52.060Z,15.68
2022-12-18T00:12:37.637Z,13.40
2022-12-18T00:15:23.019Z,12.93
2022-12-18T00:18:09.058Z,15.85
2022-12-18T00:20:54.363Z,14.57
2022-12-18T00:23:42.286Z,11.82
2022-12-18T00:26:30.419Z,15.15
2022-12-18T00:29:19.684Z,13.77
2022-12-18T00:32:05.352Z,12.15
2022-12-18T00:34:50.690Z,16.35
2022-12-18T00:37:36.260Z,11.63
2022-12-18T00:40:21.780Z,14.32
2022-12-18T00:43:07.286Z,11.73
2022-12-18T00:45:52.737Z,15.27
2022-12-18T00:48:37.967Z,15.73
2022-12-18T00:51:23.582Z,11.98
2022-12-18T00:54:09.541Z,14.35
2022-12-18T00:56:56.164Z,16.75
2022-12-18T00:59:41.589Z,14.98
2022-12-18T01:02:27.067Z,16.60
2022-12-18T01:05:14.557Z,17.35
2022-12-18T01:08:00.463Z,19.42
2022-12-18T01:10:46.239Z,18.83
2022-12-18T01:13:31.561Z,16.60
2022-12-18T01:16:18.934Z,16.10
2022-12-18T01:19:04.546Z,16.42
2022-12-18T01:21:49.915Z,16.52
2022-12-18T01:24:35.499Z,16.83
2022-12-18T01:27:20.693Z,15.73
2022-12-18T01:30:06.959Z,17.17
2022-12-18T01:32:52.639Z,16.70
2022-12-18T01:35:43.486Z,16.13
2022-12-18T01:38:29.918Z,15.43
2022-12-18T01:41:17.606Z,16.15
2022-12-18T01:44:23.354Z,15.25
2022-12-18T01:47:08.775Z,14.27
2022-12-18T01:49:55.295Z,16.52
2022-12-18T01:52:43.807Z,17.42
2022-12-18T01:55:32.139Z,14.30
2022-12-18T01:58:18.179Z,15.38
2022-12-18T02:01:04.197Z,11.98
2022-12-18T02:03:52.752Z,9.27
2022-12-18T02:06:42.377Z,14.73
2022-12-18T02:10:02.004Z,13.50
2022-12-18T02:13:21.971Z,14.07
2022-12-18T02:16:31.757Z,14.35
2022-12-18T02:19:48.977Z,14.07
2022-12-18T02:22:45.990Z,14.40
2022-12-18T02:25:45.019Z,15.35
2022-12-18T02:28:36.064Z,14.82
2022-12-18T02:31:28.782Z,17.15
2022-12-18T02:34:15.258Z,14.15
2022-12-18T02:37:05.149Z,14.07
2022-12-18T02:39:56.339Z,13.82
2022-12-18T02:42:42.567Z,13.27
2022-12-18T02:45:29.960Z,13.45
2022-12-18T02:48:15.432Z,13.55
2022-12-18T02:51:18.220Z,13.82
2022-12-18T02:54:19.672Z,14.98
2022-12-18T02:57:38.642Z,13.95
2022-12-18T03:00:39.744Z,11.30
2022-12-18T03:03:31.204Z,14.27
2022-12-18T03:06:38.219Z,13.38
2022-12-18T03:09:32.907Z,11.98
2022-12-18T03:12:54.578Z,12.55
2022-12-18T03:15:48.060Z,12.50
2022-12-18T03:18:44.423Z,12.85
2022-12-18T03:21:36.908Z,12.70
2022-12-18T03:24:25.486Z,11.77
2022-12-18T03:27:15.798Z,10.45
2022-12-18T03:30:08.499Z,7.13
2022-12-18T03:33:02.062Z,11.35
2022-12-18T03:35:49.044Z,13.52
2022-12-18T03:38:37.005Z,12.60
2022-12-18T03:41:46.083Z,11.38
2022-12-18T03:45:06.395Z,11.10
2022-12-18T03:48:07.592Z,11.52
2022-12-18T03:50:57.873Z,11.43
2022-12-18T03:53:59.417Z,13.18
2022-12-18T03:56:57.698Z,12.15
2022-12-18T03:59:46.687Z,10.65
2022-12-18T04:02:37.810Z,9.35
2022-12-18T04:05:25.298Z,11.90
2022-12-18T04:08:11.479Z,8.75
2022-12-18T04:11:03.147Z,9.85
2022-12-18T04:13:49.254Z,12.25
2022-12-18T04:16:42.141Z,10.48
2022-12-18T04:19:31.649Z,10.32
2022-12-18T04:22:18.446Z,11.75
2022-12-18T04:25:07.824Z,11.27
2022-12-18T04:27:57.294Z,10.20
2022-12-18T04:30:42.851Z,7.95
2022-12-18T04:33:28.584Z,11.57
2022-12-18T04:36:13.915Z,12.32
2022-12-18T04:39:00.399Z,11.95
2022-12-18T04:41:45.838Z,10.05
2022-12-18T04:44:32.234Z,11.20
2022-12-18T04:47:17.516Z,12.43
2022-12-18T04:50:02.734Z,12.68
2022-12-18T04:52:47.940Z,12.25
2022-12-18T04:55:33.363Z,11.38
2022-12-18T04:58:18.736Z,12.63
2022-12-18T05:01:04.604Z,12.38
2022-12-18T05:03:52.414Z,9.73
2022-12-18T05:06:37.690Z,7.25
2022-12-18T05:09:23.951Z,7.28
2022-12-18T05:12:09.582Z,8.00
2022-12-18T05:14:54.789Z,9.32
2022-12-18T05:17:40.260Z,7.93
2022-12-18T05:20:26.636Z,8.70
2022-12-18T05:23:13.157Z,9.80
2022-12-18T05:26:01.205Z,12.68
2022-12-18T05:28:47.358Z,12.50
2022-12-18T05:31:38.923Z,12.13
2022-12-18T05:34:25.347Z,13.05
2022-12-18T05:37:10.897Z,10.48
2022-12-18T05:39:56.173Z,8.77
2022-12-18T05:42:41.490Z,13.45
2022-12-18T05:45:26.927Z,12.90
2022-12-18T05:48:13.503Z,12.82
2022-12-18T05:51:06.054Z,12.52
2022-12-18T05:56:36.852Z,13.88
2022-12-18T05:59:22.556Z,10.15
2022-12-18T06:02:08.195Z,14.18
2022-12-18T06:04:53.901Z,14.40
2022-12-18T06:07:39.410Z,12.88
2022-12-18T06:10:24.717Z,12.90
2022-12-18T06:13:10.466Z,15.13
2022-12-18T06:15:56.283Z,9.60
2022-12-18T06:18:41.994Z,12.10
2022-12-18T06:21:28.221Z,12.65
2022-12-18T06:24:13.834Z,14.40
2022-12-18T06:26:59.273Z,14.98
2022-12-18T06:29:45.398Z,12.65
2022-12-18T06:32:31.570Z,14.68
2022-12-18T06:35:17.531Z,16.50
2022-12-18T06:38:04.664Z,13.48
2022-12-18T06:40:50.381Z,13.85
2022-12-18T06:43:36.501Z,13.93
2022-12-18T06:46:22.535Z,14.23
2022-12-18T06:49:10.137Z,16.00
2022-12-18T06:51:55.458Z,9.27
2022-12-18T06:54:40.789Z,9.93
2022-12-18T06:57:27.667Z,11.13
2022-12-18T07:00:14.569Z,11.77
2022-12-18T07:03:00.182Z,11.25
2022-12-18T07:05:45.694Z,11.23
2022-12-18T07:08:32.299Z,9.90
2022-12-18T07:11:19.219Z,11.73
2022-12-18T07:14:05.100Z,7.03
2022-12-18T07:16:50.577Z,11.48
2022-12-18T07:19:35.913Z,18.15
2022-12-18T07:22:21.413Z,11.38
2022-12-18T07:25:07.641Z,11.52
2022-12-18T07:27:53.693Z,13.23
2022-12-18T07:30:39.505Z,10.63
2022-12-18T07:33:24.942Z,10.75
2022-12-18T07:36:11.579Z,5.53
2022-12-18T07:38:57.203Z,8.88
2022-12-18T07:42:02.998Z,6.97
2022-12-18T07:44:48.742Z,6.85
2022-12-18T07:47:37.528Z,6.68
2022-12-18T07:50:23.215Z,8.57
2022-12-18T07:53:08.544Z,7.75
2022-12-18T07:56:26.106Z,6.82
2022-12-18T07:59:07.249Z,7.15
2022-12-18T08:01:53.185Z,7.47
2022-12-18T08:04:39.008Z,6.38
2022-12-18T08:07:27.196Z,4.85
2022-12-18T08:10:14.840Z,5.10
2022-12-18T08:13:04.649Z,5.95
2022-12-18T08:16:05.705Z,8.52
2022-12-18T08:18:53.536Z,9.60
2022-12-18T08:21:38.982Z,6.55
2022-12-18T08:24:31.092Z,8.75
2022-12-18T08:27:32.486Z,7.65
2022-12-18T08:30:20.169Z,8.87
2022-12-18T08:33:06.627Z,8.90
2022-12-18T08:35:52.472Z,7.82
2022-12-18T08:38:38.448Z,9.30
2022-12-18T08:41:24.703Z,10.13
2022-12-18T08:44:29.570Z,9.32
2022-12-18T08:47:15.938Z,10.75
2022-12-18T08:50:01.844Z,9.75
2022-12-18T08:52:47.747Z,9.27
2022-12-18T08:55:34.453Z,8.55
2022-12-18T08:58:30.958Z,9.18
2022-12-18T09:01:25.341Z,8.85
2022-12-18T09:04:15.460Z,10.27
2022-12-18T09:07:01.235Z,9.68
2022-12-18T09:09:46.698Z,8.10
2022-12-18T09:12:32.913Z,8.95
2022-12-18T09:15:18.499Z,8.20
2022-12-18T09:18:03.924Z,9.73
2022-12-18T09:20:51.221Z,11.27
2022-12-18T09:23:36.930Z,9.68
2022-12-18T09:26:23.900Z,11.07
2022-12-18T09:29:10.129Z,11.80
2022-12-18T09:31:56.110Z,12.00
2022-12-18T09:34:41.841Z,15.52
2022-12-18T09:37:29.392Z,12.60
2022-12-18T09:40:17.228Z,10.88
2022-12-18T09:43:05.803Z,12.25
2022-12-18T09:46:00.274Z,11.02
2022-12-18T09:48:51.143Z,13.85
2022-12-18T09:51:39.855Z,11.75
2022-12-18T09:54:33.890Z,13.38
2022-12-18T09:57:23.375Z,9.73
2022-12-18T10:00:12.313Z,10.20
2022-12-18T10:03:14.142Z,9.10
2022-12-18T10:06:16.370Z,10.77
2022-12-18T10:09:28.371Z,10.82
2022-12-18T10:12:43.759Z,9.75
2022-12-18T10:16:00.733Z,10.35
2022-12-18T10:19:24.403Z,10.35
2022-12-18T10:26:15.616Z,9.57
2022-12-18T10:29:05.746Z,10.35
2022-12-18T10:31:51.590Z,9.07
2022-12-18T10:34:37.125Z,9.57
2022-12-18T10:37:26.347Z,10.23
2022-12-18T10:40:21.812Z,9.07
2022-12-18T10:43:15.955Z,11.65
2022-12-18T10:46:11.192Z,10.73
2022-12-18T10:48:58.734Z,11.05
2022-12-18T10:51:45.327Z,12.85
2022-12-18T10:54:33.846Z,11.45
2022-12-18T10:57:39.791Z,9.88
2022-12-18T11:00:31.351Z,10.05
2022-12-18T11:03:39.800Z,10.57
2022-12-18T11:06:29.144Z,9.82
2022-12-18T11:09:23.111Z,10.38
2022-12-18T11:12:19.907Z,10.20
2022-12-18T11:15:05.987Z,12.80
2022-12-18T11:17:53.058Z,11.68
2022-12-18T11:20:40.082Z,13.02
2022-12-18T11:23:27.214Z,11.77
2022-12-18T11:26:12.637Z,11.32
2022-12-18T11:29:18.376Z,10.93
2022-12-18T11:32:33.175Z,10.48
2022-12-18T11:35:39.472Z,12.05
2022-12-18T11:38:26.918Z,11.77
2022-12-18T11:41:20.027Z,11.20
2022-12-18T11:44:10.139Z,11.05
2022-12-18T11:47:09.340Z,10.02
2022-12-18T11:50:00.509Z,10.50
2022-12-18T11:52:57.293Z,10.10
2022-12-18T11:56:03.480Z,11.07
2022-12-18T11:59:17.673Z,13.50
2022-12-18T12:02:28.380Z,11.52
2022-12-18T12:05:40.465Z,10.35
2022-12-18T12:08:56.445Z,9.50
2022-12-18T12:12:13.959Z,11.40
2022-12-18T12:15:47.098Z,10.85
2022-12-18T12:18:46.215Z,10.20
2022-12-18T12:21:38.070Z,9.48
2022-12-18T12:24:58.017Z,10.65
2022-12-18T12:28:06.410Z,7.95
2022-12-18T12:31:05.886Z,12.30
2022-12-18T12:34:32.701Z,13.13
2022-12-18T12:37:40.417Z,16.88
2022-12-18T12:43:34.923Z,14.90
2022-12-18T12:46:23.086Z,11.63
2022-12-18T12:49:18.574Z,8.65
2022-12-18T12:52:13.271Z,9.25
2022-12-18T12:55:01.270Z,8.50
2022-12-18T12:58:24.667Z,9.43
2022-12-18T13:01:10.765Z,10.98
2022-12-18T13:04:15.495Z,10.90
2022-12-18T13:07:13.524Z,9.52
2022-12-18T13:10:27.200Z,6.95
2022-12-18T13:13:17.293Z,9.02
2022-12-18T13:19:00.161Z,8.90
2022-12-18T13:21:55.999Z,8.27
2022-12-18T13:24:41.845Z,8.15
2022-12-18T13:27:46.634Z,6.05
2022-12-18T13:30:33.312Z,8.48
2022-12-18T13:33:31.681Z,7.43
2022-12-18T13:36:17.873Z,7.63
2022-12-18T13:39:26.724Z,8.52
2022-12-18T13:42:36.671Z,7.97
2022-12-18T13:45:42.558Z,9.75
2022-12-18T13:48:31.751Z,10.10
2022-12-18T13:51:19.360Z,6.80
2022-12-18T13:54:38.857Z,9.02
2022-12-18T13:57:39.579Z,8.38
2022-12-18T14:00:29.921Z,8.35
2022-12-18T14:03:24.230Z,10.55
2022-12-18T14:06:13.816Z,9.98
2022-12-18T14:09:01.001Z,10.68
2022-12-18T14:11:49.983Z,10.63
2022-12-18T14:14:37.681Z,9.10
2022-12-18T14:17:23.992Z,9.80
2022-12-18T14:20:16.629Z,14.63
2022-12-18T14:23:02.473Z,17.50
2022-12-18T14:25:48.406Z,15.73
2022-12-18T14:28:35.066Z,13.65
2022-12-18T14:31:28.164Z,11.23
2022-12-18T14:34:17.591Z,10.73
2022-12-18T14:37:49.666Z,10.23
2022-12-18T14:41:41.375Z,13.77
2022-12-18T14:44:39.091Z,10.40
2022-12-18T14:47:35.484Z,8.88
2022-12-18T14:50:21.462Z,11.60
2022-12-18T14:53:07.085Z,10.18
2022-12-18T14:55:52.846Z,10.13
2022-12-18T14:58:38.495Z,9.63
2022-12-18T15:01:28.933Z,9.52
2022-12-18T15:04:28.987Z,7.95
2022-12-18T15:07:23.912Z,7.82
2022-12-18T15:10:10.670Z,6.82
2022-12-18T15:12:57.085Z,7.47
2022-12-18T15:15:46.059Z,8.30
2022-12-18T15:18:36.310Z,7.75
2022-12-18T15:21:22.378Z,7.65
2022-12-18T15:24:18.988Z,8.40
2022-12-18T15:27:05.153Z,7.80
2022-12-18T15:30:24.338Z,5.80
2022-12-18T15:33:30.738Z,5.63
2022-12-18T15:36:18.043Z,6.50
2022-12-18T15:39:15.323Z,7.07
2022-12-18T15:42:21.431Z,5.30
2022-12-18T15:45:13.800Z,7.78
2022-12-18T15:50:53.679Z,7.03
2022-12-18T15:53:39.950Z,10.50
2022-12-18T15:56:45.165Z,9.57
2022-12-18T15:59:30.713Z,10.45
2022-12-18T16:02:19.753Z,11.50
2022-12-18T16:05:15.445Z,11.25
2022-12-18T16:08:01.419Z,9.57
2022-12-18T16:10:48.458Z,9.50
2022-12-18T16:13:34.079Z,9.82
2022-12-18T16:16:20.116Z,9.18
2022-12-18T16:19:05.622Z,8.35
2022-12-18T16:21:53.007Z,8.55
2022-12-18T16:24:38.421Z,7.50
2022-12-18T16:27:25.274Z,9.32
2022-12-18T16:30:19.106Z,9.57
2022-12-18T16:33:04.583Z,8.35
2022-12-18T16:35:54.323Z,10.23
2022-12-18T16:38:40.081Z,9.15
2022-12-18T16:41:34.785Z,13.38
2022-12-18T16:44:21.192Z,10.63
2022-12-18T16:47:06.919Z,12.93
2022-12-18T16:49:54.687Z,11.60
2022-12-18T16:52:41.641Z,13.65
2022-12-18T16:55:27.052Z,12.57
2022-12-18T16:58:12.422Z,11.00
2022-12-18T17:00:58.110Z,10.60
2022-12-18T17:03:44.920Z,11.93
2022-12-18T17:06:35.246Z,13.25
2022-12-18T17:09:25.768Z,14.63
2022-12-18T17:12:11.818Z,14.73
2022-12-18T17:15:03.206Z,12.95
2022-12-18T17:17:53.788Z,10.55
2022-12-18T17:20:41.078Z,11.55
2022-12-18T17:23:28.214Z,12.63
2022-12-18T17:26:14.323Z,7.57
2022-12-18T17:29:00.150Z,8.88
2022-12-18T17:31:47.651Z,10.75
2022-12-18T17:34:33.815Z,7.18
2022-12-18T17:37:19.647Z,6.78
2022-12-18T17:40:06.208Z,7.75
2022-12-18T17:42:53.937Z,7.65
2022-12-18T17:45:41.170Z,8.10
2022-12-18T17:48:27.244Z,9.60
2022-12-18T17:51:15.137Z,8.48
2022-12-18T17:54:01.897Z,8.30
2022-12-18T17:56:48.415Z,7.53
2022-12-18T17:59:35.165Z,8.20
2022-12-18T18:02:21.227Z,7.60
2022-12-18T18:05:07.252Z,8.43
2022-12-18T18:07:53.202Z,9.40
2022-12-18T18:10:41.540Z,8.52
2022-12-18T18:13:47.059Z,6.65
2022-12-18T18:16:52.523Z,7.72
2022-12-18T18:19:38.693Z,7.10
2022-12-18T18:22:27.094Z,7.45
2022-12-18T18:25:13.088Z,8.27
2022-12-18T18:27:58.998Z,7.07
2022-12-18T18:30:49.678Z,7.20
2022-12-18T18:33:37.131Z,7.45
2022-12-18T18:36:24.111Z,7.68
2022-12-18T18:39:10.462Z,8.73
2022-12-18T18:41:56.483Z,7.28
2022-12-18T18:44:47.215Z,8.50
2022-12-18T18:47:34.292Z,8.38
2022-12-18T18:50:20.211Z,7.63
2022-12-18T18:53:05.887Z,7.78
2022-12-18T18:56:17.279Z,10.82
2022-12-18T18:58:57.170Z,11.40
2022-12-18T19:01:42.968Z,10.52
2022-12-18T19:04:29.224Z,11.38
2022-12-18T19:07:23.894Z,11.25
2022-12-18T19:10:16.268Z,10.52
2022-12-18T19:13:20.798Z,11.18
2022-12-18T19:16:09.695Z,13.43
2022-12-18T19:19:17.675Z,12.48
2022-12-18T19:22:10.657Z,11.48
2022-12-18T19:27:47.629Z,9.23
2022-12-18T19:30:43.833Z,10.57
2022-12-18T19:33:43.873Z,9.50
2022-12-18T19:36:31.736Z,10.40
2022-12-18T19:39:19.446Z,8.05
2022-12-18T19:42:05.478Z,9.80
2022-12-18T19:44:51.543Z,10.20
2022-12-18T19:47:37.596Z,11.35
2022-12-18T19:50:26.407Z,9.27
2022-12-18T19:53:14.605Z,8.48
2022-12-18T19:56:13.588Z,9.85
2022-12-18T19:58:59.772Z,6.63
2022-12-18T20:01:47.337Z,6.78
2022-12-18T20:04:33.801Z,6.38
2022-12-18T20:07:19.995Z,6.00
2022-12-18T20:10:09.260Z,6.40
2022-12-18T20:12:55.193Z,9.98
2022-12-18T20:15:45.263Z,5.82
2022-12-18T20:18:31.614Z,5.47
2022-12-18T20:21:17.680Z,8.25
2022-12-18T20:24:04.589Z,6.72
2022-12-18T20:26:50.842Z,7.93
2022-12-18T20:29:36.787Z,7.45
2022-12-18T20:32:22.414Z,6.82
2022-12-18T20:35:13.551Z,6.45
2022-12-18T20:38:02.399Z,7.05
2022-12-18T20:40:50.038Z,11.27
2022-12-18T20:43:36.904Z,5.25
2022-12-18T20:46:22.965Z,9.50
2022-12-18T20:49:10.167Z,10.05
2022-12-18T20:52:03.125Z,14.75
2022-12-18T20:54:48.476Z,11.45
2022-12-18T20:57:33.988Z,12.85
2022-12-18T21:00:21.300Z,6.68
2022-12-18T21:03:07.484Z,7.82
2022-12-18T21:05:53.698Z,6.97
2022-12-18T21:08:39.486Z,6.97
2022-12-18T21:11:50.433Z,5.57
2022-12-18T21:14:36.143Z,6.97
2022-12-18T21:17:21.572Z,8.10
2022-12-18T21:20:07.865Z,10.55
2022-12-18T21:22:54.981Z,8.30
2022-12-18T21:25:44.539Z,9.20
2022-12-18T21:28:33.036Z,6.18
2022-12-18T21:31:23.392Z,5.72
2022-12-18T21:34:17.847Z,8.10
2022-12-18T21:37:04.788Z,6.32
2022-12-18T21:39:50.675Z,5.22
2022-12-18T21:43:05.732Z,3.30
2022-12-18T21:45:59.728Z,5.70
2022-12-18T21:48:46.690Z,7.13
2022-12-18T21:51:35.784Z,4.57
2022-12-18T21:54:22.203Z,3.17
2022-12-18T21:57:08.624Z,2.70
2022-12-18T21:59:54.612Z,3.22
2022-12-18T22:02:40.661Z,3.67
2022-12-18T22:05:26.545Z,3.38
2022-12-18T22:08:16.351Z,3.53
2022-12-18T22:11:02.307Z,3.65
2022-12-18T22:13:48.220Z,5.32
2022-12-18T22:16:33.880Z,5.00
2022-12-18T22:19:21.404Z,4.50
2022-12-18T22:22:07.863Z,4.63
2022-12-18T22:24:53.894Z,4.18
2022-12-18T22:27:39.384Z,3.38
2022-12-18T22:30:24.913Z,3.00
2022-12-18T22:33:10.936Z,4.35
2022-12-18T22:35:56.260Z,3.60
2022-12-18T22:38:41.849Z,4.18
2022-12-18T22:41:27.556Z,3.20
2022-12-18T22:44:17.484Z,3.60
2022-12-18T22:47:06.829Z,4.50
2022-12-18T22:49:52.959Z,4.68
2022-12-18T22:52:38.853Z,5.70
2022-12-18T22:55:24.373Z,5.53
2022-12-18T22:58:09.874Z,4.70
2022-12-18T23:00:55.501Z,4.60
2022-12-18T23:03:40.980Z,4.38
2022-12-18T23:06:28.636Z,4.28
2022-12-18T23:09:20.026Z,3.53
2022-12-18T23:12:06.295Z,5.13
2022-12-18T23:14:52.068Z,5.82
2022-12-18T23:17:37.720Z,8.73
2022-12-18T23:20:23.507Z,9.02
2022-12-18T23:23:08.974Z,8.70
2022-12-18T23:26:01.152Z,6.30
2022-12-18T23:28:47.561Z,8.95
2022-12-18T23:31:36.195Z,7.18
2022-12-18T23:34:21.428Z,5.55
2022-12-18T23:37:07.039Z,5.55
2022-12-18T23:39:53.055Z,4.35
2022-12-18T23:42:38.462Z,3.63
2022-12-18T23:45:28.135Z,3.83
2022-12-18T23:48:18.802Z,6.85
2022-12-18T23:51:12.549Z,4.10
2022-12-18T23:54:01.270Z,4.20
2022-12-18T23:56:46.892Z,7.40
2022-12-18T23:59:32.834Z,5.43
